Time;durP1;ratioP1;P1;durP2;ratioP2;P2;SDS_P1;SDS_P2;PMS_P1;PMS_P2;Temp;Humidity;BMP_temperature;BMP_pressure;BME280_temperature;BME280_humidity;BME280_pressure;Samples;Min_cycle;Max_cycle;Signal;HPM_P1;HPM_P2
2022/09/04 00:03:02;;;;;;;4.90;2.97;;;12.30;99.90;;;;;;8346709;28;20044;-92
2022/09/04 00:07:40;;;;;;;4.05;2.65;;;12.20;99.90;;;;;;8346206;28;20040;-92
2022/09/04 00:11:51;;;;;;;7.38;2.55;;;12.10;99.90;;;;;;8341461;28;20566;-92
2022/09/04 00:16:09;;;;;;;4.00;2.38;;;12.00;99.90;;;;;;8329064;28;20021;-92
2022/09/04 00:20:22;;;;;;;2.83;2.50;;;11.90;99.90;;;;;;8329379;28;20404;-92
2022/09/04 00:24:39;;;;;;;3.33;2.90;;;11.90;99.90;;;;;;8314961;28;20044;-92
2022/09/04 00:28:43;;;;;;;5.95;2.88;;;11.90;99.90;;;;;;8341775;28;20018;-93
2022/09/04 00:33:21;;;;;;;3.42;2.75;;;11.90;99.90;;;;;;8312583;28;20022;-92
2022/09/04 00:37:28;;;;;;;4.47;2.60;;;11.90;99.90;;;;;;8328472;28;20021;-92
2022/09/04 00:41:39;;;;;;;4.32;2.60;;;12.00;99.90;;;;;;8331351;28;20026;-91
2022/09/04 00:46:16;;;;;;;3.95;2.88;;;11.70;99.90;;;;;;8340642;28;20048;-92
2022/09/04 00:50:56;;;;;;;4.80;3.13;;;11.50;99.90;;;;;;8320641;28;20027;-92
2022/09/04 00:55:16;;;;;;;4.93;2.50;;;11.50;99.90;;;;;;8346486;28;20013;-92
2022/09/04 00:59:19;;;;;;;9.33;3.47;;;11.50;99.90;;;;;;8328001;28;20638;-91
2022/09/04 01:03:42;;;;;;;3.58;2.80;;;11.40;99.90;;;;;;8343023;28;20132;-92
2022/09/04 01:08:06;;;;;;;4.68;3.40;;;11.30;99.90;;;;;;8343384;28;20386;-91
2022/09/04 01:12:29;;;;;;;6.10;3.15;;;11.20;99.90;;;;;;8306082;28;20036;-92
2022/09/04 01:16:43;;;;;;;3.72;2.83;;;11.20;99.90;;;;;;8344398;28;20029;-92
2022/09/04 01:20:55;;;;;;;5.78;3.22;;;11.30;99.90;;;;;;8339526;28;20112;-92
2022/09/04 01:25:12;;;;;;;4.43;2.97;;;11.30;99.90;;;;;;8319786;28;20029;-91
2022/09/04 01:29:42;;;;;;;6.32;3.10;;;11.20;99.90;;;;;;8352552;28;20028;-92
2022/09/04 01:34:20;;;;;;;3.78;3.00;;;11.10;99.90;;;;;;8331273;28;20029;-91
2022/09/04 01:38:36;;;;;;;3.00;2.67;;;11.20;99.90;;;;;;8345300;28;20021;-92
2022/09/04 01:43:10;;;;;;;3.22;2.70;;;11.20;99.90;;;;;;8335655;28;20021;-91
2022/09/04 01:47:19;;;;;;;5.15;2.83;;;11.20;99.90;;;;;;8323231;28;20112;-92
2022/09/04 01:51:38;;;;;;;4.95;2.60;;;11.30;99.90;;;;;;8347914;28;20111;-92
2022/09/04 01:55:44;;;;;;;4.00;2.90;;;11.20;99.90;;;;;;8331498;28;20025;-92
2022/09/04 02:00:09;;;;;;;3.63;2.53;;;11.10;99.90;;;;;;8332577;28;20025;-92
2022/09/04 02:05:07;;;;;;;3.55;2.58;;;11.00;99.90;;;;;;8311015;28;20033;-91
2022/09/04 02:09:30;;;;;;;2.83;2.25;;;10.90;99.90;;;;;;8236729;28;20025;-91
2022/09/04 02:14:01;;;;;;;5.65;2.88;;;11.00;99.90;;;;;;8301413;28;20038;-91
2022/09/04 02:18:26;;;;;;;3.72;2.75;;;10.90;99.90;;;;;;8341861;28;20104;-92
2022/09/04 02:22:29;;;;;;;6.18;2.97;;;10.70;99.90;;;;;;8344873;28;20025;-92
2022/09/04 02:26:37;;;;;;;4.43;2.95;;;10.70;99.90;;;;;;8354552;28;20029;-92
2022/09/04 02:30:54;;;;;;;4.07;3.08;;;10.80;99.90;;;;;;8328693;28;20537;-91
2022/09/04 02:35:08;;;;;;;3.65;3.00;;;10.90;99.90;;;;;;8354148;28;20395;-92
2022/09/04 02:39:36;;;;;;;5.32;3.03;;;10.80;99.90;;;;;;8342255;28;20098;-92
2022/09/04 02:44:03;;;;;;;4.63;3.00;;;10.80;99.90;;;;;;8357713;28;20027;-92
2022/09/04 02:48:19;;;;;;;4.13;2.90;;;10.70;99.90;;;;;;8289079;28;20495;-92
2022/09/04 02:52:38;;;;;;;4.57;2.97;;;10.70;99.90;;;;;;8327827;28;20032;-92
2022/09/04 02:56:57;;;;;;;5.75;2.80;;;10.60;99.90;;;;;;8356749;28;20016;-92
2022/09/04 03:01:23;;;;;;;4.05;3.00;;;10.70;99.90;;;;;;8352416;28;20021;-92
2022/09/04 03:05:31;;;;;;;4.22;2.85;;;10.70;99.90;;;;;;8321108;28;20017;-91
2022/09/04 03:09:52;;;;;;;4.43;2.95;;;10.60;99.90;;;;;;8332566;28;20026;-92
2022/09/04 03:14:23;;;;;;;6.63;2.75;;;10.50;99.90;;;;;;8338416;28;20025;-91
2022/09/04 03:18:48;;;;;;;3.53;2.33;;;10.60;99.90;;;;;;8331832;28;20021;-91
2022/09/04 03:23:14;;;;;;;4.95;2.65;;;10.40;99.90;;;;;;8345160;28;20025;-91
2022/09/04 03:27:17;;;;;;;5.57;2.72;;;10.40;99.90;;;;;;8348703;28;20025;-92
2022/09/04 03:31:43;;;;;;;3.47;2.35;;;10.40;99.90;;;;;;8327285;28;20112;-92
2022/09/04 03:36:01;;;;;;;4.15;2.70;;;10.30;99.90;;;;;;8348431;28;20487;-92
2022/09/04 03:40:22;;;;;;;3.97;3.42;;;10.40;99.90;;;;;;8325594;28;20083;-92
2022/09/04 03:44:34;;;;;;;5.67;3.37;;;10.40;99.90;;;;;;8317977;28;20036;-92
2022/09/04 03:48:42;;;;;;;4.50;3.03;;;10.30;99.90;;;;;;8358570;28;20028;-92
2022/09/04 03:52:51;;;;;;;3.15;2.60;;;10.20;99.90;;;;;;8346459;28;20032;-92
2022/09/04 03:57:25;;;;;;;2.78;2.45;;;10.00;99.90;;;;;;8350466;28;20399;-91
2022/09/04 04:01:55;;;;;;;5.47;2.40;;;10.00;99.90;;;;;;8325388;28;20048;-91
2022/09/04 04:06:22;;;;;;;5.03;3.10;;;9.90;99.90;;;;;;8317300;28;20029;-92
2022/09/04 04:10:39;;;;;;;9.98;2.67;;;9.80;99.90;;;;;;8330694;28;20043;-92
2022/09/04 04:14:54;;;;;;;4.75;3.25;;;9.90;99.90;;;;;;8315173;28;20071;-92
2022/09/04 04:19:09;;;;;;;3.90;2.90;;;10.00;99.90;;;;;;8338434;28;20220;-91
2022/09/04 04:23:28;;;;;;;4.18;2.78;;;10.00;99.90;;;;;;8337683;28;20108;-91
2022/09/04 04:28:06;;;;;;;5.65;2.97;;;10.00;99.90;;;;;;8346052;28;20021;-91
2022/09/04 04:32:45;;;;;;;3.53;2.90;;;10.00;99.90;;;;;;8346661;28;20021;-92
2022/09/04 04:37:07;;;;;;;3.85;2.90;;;10.20;99.90;;;;;;8329153;28;20025;-92
2022/09/04 04:41:23;;;;;;;3.97;3.08;;;10.30;99.90;;;;;;8342828;28;20491;-91
2022/09/04 04:45:49;;;;;;;5.32;3.30;;;10.40;99.90;;;;;;8336139;28;20029;-92
2022/09/04 04:50:08;;;;;;;4.30;2.80;;;10.50;99.90;;;;;;8341720;28;20087;-92
2022/09/04 04:54:36;;;;;;;6.57;2.88;;;10.60;99.90;;;;;;8355271;28;20021;-92
2022/09/04 04:58:49;;;;;;;2.95;2.65;;;10.80;99.90;;;;;;8350359;28;20068;-91
2022/09/04 05:03:15;;;;;;;4.20;3.05;;;10.90;99.90;;;;;;8351632;28;20021;-92
2022/09/04 05:07:47;;;;;;;4.28;3.08;;;11.00;99.90;;;;;;8329476;28;20034;-92
2022/09/04 05:11:58;;;;;;;3.10;2.75;;;11.20;99.90;;;;;;8318115;28;20057;-91
2022/09/04 05:16:46;;;;;;;4.00;2.20;;;11.50;99.90;;;;;;8267475;22;20144;-81
2022/09/04 05:20:56;;;;;;;2.25;1.98;;;11.70;99.90;;;;;;8289249;28;20041;-81
2022/09/04 05:25:34;;;;;;;2.88;2.20;;;11.90;99.90;;;;;;8283939;28;20022;-81
2022/09/04 05:30:04;;;;;;;2.15;1.92;;;11.90;99.90;;;;;;8275824;28;20049;-81
2022/09/04 05:34:35;;;;;;;2.17;1.98;;;12.00;99.90;;;;;;8257856;28;20032;-81
2022/09/04 05:39:07;;;;;;;3.05;1.92;;;12.10;99.90;;;;;;8295639;28;20029;-82
2022/09/04 05:43:18;;;;;;;2.28;2.08;;;12.30;99.90;;;;;;8302415;28;20403;-82
2022/09/04 05:47:37;;;;;;;3.05;2.40;;;12.40;99.90;;;;;;8313474;28;20050;-81
2022/09/04 05:51:51;;;;;;;3.45;2.60;;;12.70;99.90;;;;;;8297579;28;20885;-81
2022/09/04 05:56:28;;;;;;;2.88;2.40;;;12.60;99.90;;;;;;8306409;28;20083;-81
2022/09/04 06:00:49;;;;;;;2.55;2.22;;;12.90;99.90;;;;;;8323237;28;20036;-82
2022/09/04 06:05:11;;;;;;;2.65;2.00;;;13.00;99.90;;;;;;8293763;28;20026;-82
2022/09/04 06:09:32;;;;;;;2.67;2.10;;;13.10;99.90;;;;;;8299653;28;20102;-82
2022/09/04 06:13:49;;;;;;;3.00;2.03;;;13.30;99.90;;;;;;8290608;28;20128;-82
2022/09/04 06:18:24;;;;;;;2.97;2.10;;;13.50;99.90;;;;;;8287073;28;20049;-82
2022/09/04 06:23:02;;;;;;;6.03;2.30;;;13.80;99.90;;;;;;8293821;28;20125;-82
2022/09/04 06:27:31;;;;;;;3.15;2.13;;;14.20;99.90;;;;;;8308105;28;20034;-82
2022/09/04 06:31:49;;;;;;;3.60;2.50;;;14.30;99.90;;;;;;8288534;28;20103;-82
2022/09/04 06:36:01;;;;;;;2.90;2.53;;;14.20;99.90;;;;;;8302530;28;20035;-82
2022/09/04 06:40:16;;;;;;;2.45;2.13;;;14.50;99.90;;;;;;8307977;28;20019;-82
2022/09/04 06:44:54;;;;;;;3.20;1.90;;;14.90;99.90;;;;;;8299999;28;20088;-82
2022/09/04 06:49:07;;;;;;;2.55;1.90;;;15.50;99.90;;;;;;8315154;28;20025;-82
2022/09/04 06:53:25;;;;;;;3.22;2.10;;;15.70;99.90;;;;;;8286256;28;20030;-82
2022/09/04 06:57:59;;;;;;;2.53;2.10;;;15.70;99.90;;;;;;8297479;28;20072;-82
2022/09/04 07:02:31;;;;;;;2.22;2.03;;;15.70;99.90;;;;;;8310444;28;20068;-82
2022/09/04 07:06:31;;;;;;;;;;;15.70;99.90;;;;;;8304117;28;20109;-82
2022/09/04 07:10:42;;;;;;;2.87;2.27;;;15.70;99.90;;;;;;8304853;28;19916;-82
2022/09/04 07:15:01;;;;;;;;;;;16.10;99.90;;;;;;8317467;28;20494;-82
2022/09/04 07:19:31;;;;;;;7.40;2.17;;;16.20;99.90;;;;;;8307448;28;19948;-82
2022/09/04 07:24:09;;;;;;;5.50;2.60;;;16.60;99.90;;;;;;8292103;28;20601;-82
2022/09/04 07:28:13;;;;;;;2.33;1.92;;;17.30;99.90;;;;;;8288715;28;20026;-81
2022/09/04 07:32:35;;;;;;;2.22;1.90;;;17.60;99.90;;;;;;8291855;28;20021;-82
2022/09/04 07:36:54;;;;;;;2.40;1.92;;;17.60;99.90;;;;;;8278685;28;20034;-82
2022/09/04 07:41:15;;;;;;;4.25;2.47;;;18.40;99.90;;;;;;8311330;28;20541;-82
2022/09/04 07:45:33;;;;;;;3.97;2.00;;;19.10;99.90;;;;;;8303093;28;20033;-83
2022/09/04 07:50:02;;;;;;;2.72;2.17;;;19.50;99.90;;;;;;8355763;23;20052;-79
2022/09/04 07:54:32;;;;;;;2.35;2.15;;;20.10;99.90;;;;;;8353534;28;20427;-79
2022/09/04 07:58:45;;;;;;;2.10;1.90;;;20.80;99.90;;;;;;8340987;28;20108;-80
2022/09/04 08:03:01;;;;;;;3.05;2.10;;;21.60;99.90;;;;;;8339940;28;20112;-79
2022/09/04 08:07:10;;;;;;;3.17;1.90;;;21.90;99.90;;;;;;8325024;28;20522;-79
2022/09/04 08:11:17;;;;;;;2.72;2.00;;;22.00;99.90;;;;;;8342278;28;20029;-81
2022/09/04 08:15:41;;;;;;;1.60;1.50;;;22.30;99.90;;;;;;8340963;28;20516;-79
2022/09/04 08:20:11;;;;;;;1.73;1.63;;;22.90;99.90;;;;;;8277541;28;20387;-79
2022/09/04 08:24:33;;;;;;;2.75;1.60;;;22.90;99.90;;;;;;8341916;28;20151;-79
2022/09/04 08:29:25;;;;;;;2.72;1.85;;;22.90;99.90;;;;;;8340921;28;20491;-80
2022/09/04 08:33:50;;;;;;;4.77;1.60;;;23.10;99.90;;;;;;8290121;28;20517;-79
2022/09/04 08:37:59;;;;;;;1.98;1.58;;;23.00;99.90;;;;;;8325556;28;20414;-79
2022/09/04 08:42:40;;;;;;;2.20;1.75;;;23.10;99.90;;;;;;8342715;28;20090;-79
2022/09/04 08:46:53;;;;;;;3.00;1.38;;;23.30;99.90;;;;;;8328636;28;20467;-80
2022/09/04 08:51:13;;;;;;;1.38;1.23;;;23.60;99.90;;;;;;8341487;28;20049;-79
2022/09/04 08:55:31;;;;;;;3.78;1.75;;;23.50;99.90;;;;;;8321549;28;20120;-79
2022/09/04 08:59:32;;;;;;;1.30;1.20;;;23.80;99.90;;;;;;8327962;28;20508;-79
2022/09/04 09:03:53;;;;;;;2.45;1.48;;;23.90;99.90;;;;;;8324293;28;20065;-80
2022/09/04 09:08:22;;;;;;;1.40;1.17;;;23.90;99.90;;;;;;8322939;28;20030;-79
2022/09/04 09:12:51;;;;;;;2.00;1.40;;;24.20;99.90;;;;;;8323236;28;20517;-80
2022/09/04 09:17:11;;;;;;;1.83;1.33;;;24.50;99.90;;;;;;8321703;28;20124;-80
2022/09/04 09:22:00;;;;;;;2.63;1.40;;;24.90;99.90;;;;;;8322326;28;20025;-80
2022/09/04 09:26:09;;;;;;;3.60;2.15;;;24.30;99.90;;;;;;8325096;28;20125;-81
2022/09/04 09:30:16;;;;;;;1.80;1.20;;;24.40;99.90;;;;;;8331659;28;20114;-79
2022/09/04 09:34:32;;;;;;;1.70;1.40;;;24.30;99.90;;;;;;8328349;28;20530;-79
2022/09/04 09:38:41;;;;;;;1.38;1.20;;;24.50;99.90;;;;;;8331778;28;20071;-79
2022/09/04 09:42:48;;;;;;;1.40;1.30;;;24.60;99.90;;;;;;8334313;28;20056;-80
2022/09/04 09:47:39;;;;;;;1.95;1.30;;;24.70;99.90;;;;;;8332808;28;20033;-80
2022/09/04 09:52:17;;;;;;;3.90;1.50;;;25.10;99.90;;;;;;8311454;28;20064;-79
2022/09/04 09:56:30;;;;;;;4.82;1.67;;;25.30;99.90;;;;;;8323817;28;20071;-80
2022/09/04 10:00:58;;;;;;;1.88;1.42;;;25.40;99.90;;;;;;8326061;28;20044;-79
2022/09/04 10:05:18;;;;;;;2.75;1.45;;;25.50;99.90;;;;;;8310400;28;20033;-79
2022/09/04 10:09:55;;;;;;;2.33;1.63;;;25.30;99.90;;;;;;8323001;28;20091;-80
2022/09/04 10:14:14;;;;;;;1.55;1.20;;;25.60;99.90;;;;;;8319282;28;20018;-80
2022/09/04 10:18:21;;;;;;;2.38;1.40;;;25.40;99.90;;;;;;8323058;28;20113;-80
2022/09/04 10:22:38;;;;;;;2.53;1.33;;;25.90;99.90;;;;;;8322202;28;20018;-80
2022/09/04 10:27:11;;;;;;;1.58;1.40;;;26.80;99.90;;;;;;8323104;28;20099;-80
2022/09/04 10:31:25;;;;;;;1.20;1.10;;;27.90;99.90;;;;;;8308103;28;20032;-80
2022/09/04 10:35:40;;;;;;;3.30;1.50;;;27.50;99.90;;;;;;8320927;28;20395;-79
2022/09/04 10:44:39;;;;;;;1.50;1.20;;;28.20;99.90;;;;;;8318624;28;20128;-80
2022/09/04 10:49:18;;;;;;;1.30;1.20;;;28.20;99.90;;;;;;8320620;28;20044;-81
2022/09/04 10:53:48;;;;;;;1.58;1.00;;;27.40;99.90;;;;;;8325920;28;20025;-80
2022/09/04 10:58:15;;;;;;;1.70;1.43;;;27.50;99.90;;;;;;8328399;28;20024;-80
2022/09/04 11:02:41;;;;;;;2.88;1.30;;;26.90;99.90;;;;;;8326620;28;20045;-80
2022/09/04 11:07:03;;;;;;;1.55;1.00;;;27.30;99.90;;;;;;8325721;28;20111;-80
2022/09/04 11:11:26;;;;;;;1.27;1.05;;;27.30;99.90;;;;;;8325356;28;20402;-80
2022/09/04 11:15:49;;;;;;;2.97;1.30;;;27.20;99.90;;;;;;8327219;28;20037;-80
2022/09/04 11:20:11;;;;;;;1.75;1.20;;;27.60;99.90;;;;;;8327956;28;20045;-80
2022/09/04 11:24:40;;;;;;;1.73;1.27;;;27.30;99.90;;;;;;8327360;28;20025;-80
2022/09/04 11:29:22;;;;;;;1.17;1.08;;;26.30;99.90;;;;;;8326968;28;20132;-80
2022/09/04 11:33:44;;;;;;;2.33;1.30;;;25.30;99.90;;;;;;8315293;28;20041;-80
2022/09/04 11:38:00;;;;;;;1.67;1.20;;;27.60;99.90;;;;;;8308736;28;20348;-80
2022/09/04 11:42:09;;;;;;;1.33;1.20;;;29.30;99.90;;;;;;8324543;28;20082;-80
2022/09/04 11:46:25;;;;;;;2.53;0.97;;;29.20;99.90;;;;;;8325462;28;20051;-81
2022/09/04 11:50:28;;;;;;;2.33;1.23;;;29.30;97.10;;;;;;8327772;28;20021;-80
2022/09/04 11:54:49;;;;;;;1.33;1.20;;;29.10;98.90;;;;;;8331347;28;20616;-79
2022/09/04 11:59:05;;;;;;;1.63;1.10;;;29.20;97.10;;;;;;8326645;28;20505;-80
2022/09/04 12:03:21;;;;;;;1.10;1.00;;;28.70;98.00;;;;;;8324288;28;20055;-80
2022/09/04 12:07:36;;;;;;;2.30;1.10;;;28.30;96.50;;;;;;8321506;28;20048;-80
2022/09/04 12:12:10;;;;;;;1.75;1.10;;;28.20;98.40;;;;;;8322823;28;20030;-81
2022/09/04 12:16:33;;;;;;;1.00;0.90;;;29.60;96.40;;;;;;8324290;28;20052;-80
2022/09/04 12:21:19;;;;;;;2.00;1.27;;;31.60;91.40;;;;;;8322454;28;20028;-79
2022/09/04 12:25:25;;;;;;;1.35;1.23;;;30.40;95.80;;;;;;8301101;28;20068;-80
2022/09/04 12:29:57;;;;;;;4.00;1.52;;;29.10;93.00;;;;;;8330737;28;20506;-79
2022/09/04 12:34:13;;;;;;;1.30;1.00;;;28.20;95.40;;;;;;8329503;28;20175;-80
2022/09/04 12:38:36;;;;;;;1.95;1.40;;;27.40;98.70;;;;;;8328058;28;20567;-81
2022/09/04 12:43:05;;;;;;;1.20;1.10;;;26.70;99.70;;;;;;8329804;28;20029;-81
2022/09/04 12:47:42;;;;;;;1.05;0.95;;;26.60;99.90;;;;;;8325478;28;20526;-80
2022/09/04 12:52:05;;;;;;;2.00;1.00;;;29.80;95.50;;;;;;8326130;28;20021;-80
2022/09/04 12:56:25;;;;;;;2.25;1.20;;;28.30;96.50;;;;;;8298864;28;20061;-78
2022/09/04 13:00:37;;;;;;;1.47;1.10;;;27.10;99.10;;;;;;8331338;28;20120;-79
2022/09/04 13:04:48;;;;;;;2.75;1.20;;;27.40;99.70;;;;;;8306522;28;20037;-78
2022/09/04 13:09:18;;;;;;;2.75;1.30;;;25.30;99.90;;;;;;8323026;28;20483;-78
2022/09/04 13:13:44;;;;;;;2.55;1.10;;;24.60;99.90;;;;;;8311759;28;20032;-78
2022/09/04 13:18:07;;;;;;;2.05;1.00;;;24.80;99.90;;;;;;8328023;28;20036;-80
2022/09/04 13:22:23;;;;;;;1.88;1.30;;;24.60;99.90;;;;;;8330542;28;20025;-78
2022/09/04 13:26:31;;;;;;;1.40;1.17;;;24.60;99.90;;;;;;8328980;28;20018;-78
2022/09/04 13:30:39;;;;;;;1.60;1.20;;;24.90;99.90;;;;;;8307257;28;20044;-79
2022/09/04 13:34:59;;;;;;;1.88;1.00;;;25.40;99.90;;;;;;8306762;28;20025;-78
2022/09/04 13:39:10;;;;;;;1.90;1.30;;;26.90;99.90;;;;;;8327717;28;20426;-78
2022/09/04 13:43:23;;;;;;;1.60;1.10;;;28.20;99.90;;;;;;8327989;28;20025;-79
2022/09/04 13:47:48;;;;;;;1.40;1.10;;;29.70;97.30;;;;;;8326693;28;20037;-79
2022/09/04 13:52:06;;;;;;;1.40;0.90;;;33.30;90.30;;;;;;8325016;28;20757;-80
2022/09/04 13:56:14;;;;;;;2.30;1.10;;;34.60;73.00;;;;;;8308016;28;20031;-79
2022/09/04 14:00:15;;;;;;;1.20;0.90;;;34.80;70.40;;;;;;8307940;28;20033;-79
2022/09/04 14:04:45;;;;;;;2.35;0.95;;;35.50;61.90;;;;;;8307338;28;20447;-78
2022/09/04 14:08:48;;;;;;;1.23;1.08;;;33.70;64.20;;;;;;8314553;23;20050;-92
2022/09/04 14:13:13;;;;;;;1.40;1.30;;;29.90;82.40;;;;;;8290669;28;20045;-92
2022/09/04 14:17:25;;;;;;;1.55;1.10;;;27.30;90.90;;;;;;8288083;28;20041;-93
2022/09/04 14:21:56;;;;;;;1.08;1.02;;;26.40;92.20;;;;;;8298102;28;20037;-93
2022/09/04 14:26:05;;;;;;;1.25;1.10;;;29.70;91.40;;;;;;8293041;28;20021;-92
2022/09/04 14:30:14;;;;;;;1.13;1.00;;;34.50;72.10;;;;;;8287177;28;20029;-92
2022/09/04 14:34:38;;;;;;;2.33;1.10;;;36.90;62.20;;;;;;8291793;28;20049;-92
2022/09/04 14:39:04;;;;;;;1.25;1.10;;;35.60;61.40;;;;;;8289616;28;20483;-92
2022/09/04 14:43:10;;;;;;;1.42;1.00;;;33.90;73.00;;;;;;8291572;28;20047;-92
2022/09/04 14:47:35;;;;;;;1.48;1.10;;;33.10;66.70;;;;;;8304970;28;20042;-92
2022/09/04 14:51:42;;;;;;;2.20;1.05;;;32.30;69.50;;;;;;8305023;28;20557;-92
2022/09/04 14:56:06;;;;;;;3.08;1.15;;;30.60;75.00;;;;;;8305658;28;20037;-91
2022/09/04 15:00:18;;;;;;;1.90;1.20;;;28.40;85.80;;;;;;8291383;28;20056;-92
2022/09/04 15:04:26;;;;;;;1.23;1.10;;;27.90;88.20;;;;;;8298011;28;20018;-93
2022/09/04 15:08:32;;;;;;;2.55;2.03;;;27.80;90.70;;;;;;8295823;28;20030;-93
2022/09/04 15:12:41;;;;;;;2.85;1.40;;;27.30;88.70;;;;;;8295849;28;20040;-92
2022/09/04 15:16:49;;;;;;;3.10;1.30;;;26.70;90.90;;;;;;8292648;28;20061;-93
2022/09/04 15:21:10;;;;;;;1.77;1.20;;;26.10;92.00;;;;;;8297443;28;20053;-92
2022/09/04 15:25:45;;;;;;;3.72;1.13;;;25.60;94.60;;;;;;8295404;28;20601;-92
2022/09/04 15:29:52;;;;;;;1.55;1.23;;;25.80;95.80;;;;;;8313365;28;20060;-92
2022/09/04 15:34:02;;;;;;;2.40;1.33;;;26.40;98.10;;;;;;8313216;28;20103;-92
2022/09/04 15:38:19;;;;;;;2.65;1.38;;;28.30;92.20;;;;;;8317308;28;20080;-91
2022/09/04 15:42:51;;;;;;;1.27;1.17;;;30.00;83.60;;;;;;8314800;28;20109;-91
2022/09/04 15:47:22;;;;;;;1.10;1.00;;;30.80;79.20;;;;;;8314383;28;20241;-92
2022/09/04 15:51:46;;;;;;;1.30;1.20;;;31.90;73.90;;;;;;8313933;28;20026;-92
2022/09/04 15:56:05;;;;;;;1.90;1.10;;;33.20;75.20;;;;;;8296382;28;20030;-92
2022/09/04 16:00:14;;;;;;;1.55;0.93;;;32.40;78.40;;;;;;8304340;28;20025;-92
2022/09/04 16:04:18;;;;;;;1.53;1.30;;;32.00;80.30;;;;;;8299447;28;20025;-92
2022/09/04 16:08:25;;;;;;;3.92;1.27;;;29.20;80.20;;;;;;8310909;28;20029;-91
2022/09/04 16:12:33;;;;;;;3.20;1.30;;;26.00;93.10;;;;;;8297084;28;20553;-92
2022/09/04 16:16:41;;;;;;;2.13;1.48;;;24.30;95.80;;;;;;8302069;28;20081;-92
2022/09/04 16:20:54;;;;;;;1.25;1.10;;;23.50;99.90;;;;;;8293089;28;20030;-92
2022/09/04 16:25:20;;;;;;;2.03;1.40;;;23.10;99.90;;;;;;8286029;28;20036;-91
2022/09/04 16:34:27;;;;;;;1.50;1.10;;;22.90;99.90;;;;;;8297250;28;20204;-92
2022/09/04 16:38:41;;;;;;;2.58;1.38;;;22.60;99.90;;;;;;8299577;28;20095;-93
2022/09/04 16:42:48;;;;;;;2.97;1.50;;;22.50;99.90;;;;;;8298979;28;20112;-92
2022/09/04 16:47:01;;;;;;;2.05;1.10;;;22.40;99.90;;;;;;8286553;28;20503;-93
2022/09/04 16:51:23;;;;;;;1.65;1.38;;;22.10;99.90;;;;;;8310980;28;20506;-93
2022/09/04 16:55:34;;;;;;;1.58;1.48;;;21.60;99.90;;;;;;8291383;28;20068;-92
2022/09/04 16:59:42;;;;;;;3.08;1.55;;;21.20;99.90;;;;;;8292578;28;20029;-92
2022/09/04 17:39:24;;;;;;;;;;;;;;;;;;;;;
2022/09/04 17:54:16;;;;;;;;;;;;;;;;;;;;;
2022/09/04 18:04:09;;;;;;;4.78;4.20;;;18.40;99.90;;;;;;8160828;29;20035;-92
2022/09/04 18:45:30;;;;;;;7.10;4.72;;;16.70;99.90;;;;;;8289453;23;20111;-79
2022/09/04 18:49:30;;;;;;;4.10;3.70;;;16.50;99.90;;;;;;8330268;28;20029;-80
2022/09/04 18:53:45;;;;;;;5.65;4.10;;;16.50;99.90;;;;;;8333538;28;20044;-79
2022/09/04 18:57:58;;;;;;;28.25;19.75;;;16.40;99.90;;;;;;8332926;28;20028;-78
2022/09/04 19:02:02;;;;;;;19.95;12.55;;;16.50;99.90;;;;;;8329344;28;20189;-79
2022/09/04 19:06:14;;;;;;;12.00;7.65;;;16.30;99.90;;;;;;8313533;28;20026;-80
2022/09/04 19:10:37;;;;;;;23.80;15.35;;;16.20;99.90;;;;;;8315362;28;20021;-79
2022/09/04 19:14:41;;;;;;;2.55;2.35;;;16.00;99.90;;;;;;8315005;28;20106;-80
2022/09/04 19:19:03;;;;;;;3.53;2.30;;;15.90;99.90;;;;;;8334151;28;20084;-79
2022/09/04 19:23:09;;;;;;;3.25;2.50;;;15.80;99.90;;;;;;8335870;28;20029;-79
2022/09/04 19:27:09;;;;;;;2.78;2.35;;;15.80;99.90;;;;;;8320625;28;20022;-80
2022/09/04 19:31:45;;;;;;;3.40;2.38;;;15.70;99.90;;;;;;8331462;28;20104;-79
2022/09/04 19:35:59;;;;;;;3.10;2.20;;;15.60;99.90;;;;;;8272978;28;20056;-80
2022/09/04 19:40:11;;;;;;;3.53;2.20;;;15.50;99.90;;;;;;8331971;28;20021;-79
2022/09/04 19:44:24;;;;;;;4.18;2.53;;;15.50;99.90;;;;;;8309342;28;20025;-79
2022/09/04 19:48:28;;;;;;;2.45;2.20;;;15.60;99.90;;;;;;8335753;28;20026;-78
2022/09/04 19:52:38;;;;;;;3.30;2.50;;;15.40;99.90;;;;;;8330499;28;20075;-80
2022/09/04 19:57:02;;;;;;;3.42;2.58;;;15.20;99.90;;;;;;8327454;28;20033;-79
2022/09/04 20:01:15;;;;;;;4.03;2.45;;;15.00;99.90;;;;;;8303749;28;20120;-79
2022/09/04 20:05:26;;;;;;;3.35;2.30;;;15.00;99.90;;;;;;8324537;28;20060;-80
2022/09/04 20:09:44;;;;;;;6.60;2.38;;;15.00;99.90;;;;;;8317500;28;20044;-80
2022/09/04 20:13:59;;;;;;;3.78;2.60;;;14.90;99.90;;;;;;8329556;28;20021;-80
2022/09/04 20:18:17;;;;;;;3.92;2.78;;;15.40;99.90;;;;;;8314477;28;20060;-79
2022/09/04 20:22:30;;;;;;;3.38;2.78;;;15.10;99.90;;;;;;8329845;28;20033;-79
2022/09/04 20:26:49;;;;;;;3.95;2.70;;;14.80;99.90;;;;;;8322972;28;20024;-79
2022/09/04 20:31:30;;;;;;;4.38;2.90;;;14.70;99.90;;;;;;8331201;28;20492;-79
2022/09/04 20:35:43;;;;;;;3.40;2.40;;;14.70;99.90;;;;;;8334460;28;20422;-80
2022/09/04 20:39:58;;;;;;;5.88;2.90;;;14.40;99.90;;;;;;8329392;28;20022;-80
2022/09/04 20:44:21;;;;;;;4.15;2.90;;;14.20;99.90;;;;;;8327808;28;20403;-79
2022/09/04 20:48:52;;;;;;;3.08;2.65;;;14.20;99.90;;;;;;8337220;28;20041;-80
2022/09/04 20:52:57;;;;;;;3.33;2.83;;;14.10;99.90;;;;;;8316078;28;20503;-79
2022/09/04 20:57:09;;;;;;;7.38;2.88;;;13.90;99.90;;;;;;8333014;28;20017;-79
2022/09/04 21:01:13;;;;;;;4.40;3.08;;;13.80;99.90;;;;;;8333086;28;20022;-78
2022/09/04 21:05:52;;;;;;;4.70;3.35;;;13.70;99.90;;;;;;8328851;28;20577;-80
2022/09/04 21:10:22;;;;;;;3.53;2.85;;;13.60;99.90;;;;;;8322922;28;20068;-80
2022/09/04 21:14:36;;;;;;;3.92;2.65;;;13.90;99.90;;;;;;8317445;28;20055;-79
2022/09/04 21:18:55;;;;;;;3.88;3.22;;;13.70;99.90;;;;;;8333172;28;20030;-79
2022/09/04 21:23:27;;;;;;;5.68;3.25;;;13.80;99.90;;;;;;8313111;28;20025;-79
2022/09/04 21:27:48;;;;;;;5.50;3.33;;;13.80;99.90;;;;;;8326697;28;20399;-80
2022/09/04 21:32:15;;;;;;;5.80;3.30;;;13.80;99.90;;;;;;8321184;28;20029;-78
2022/09/04 21:36:32;;;;;;;4.25;3.30;;;13.60;99.90;;;;;;8313503;28;20038;-80
2022/09/04 21:40:54;;;;;;;4.50;3.30;;;13.50;99.90;;;;;;8320312;28;20029;-79
2022/09/04 21:45:06;;;;;;;5.60;3.47;;;13.40;99.90;;;;;;8310691;28;20085;-79
2022/09/04 21:49:44;;;;;;;4.05;3.20;;;13.30;99.90;;;;;;8336191;28;20079;-79
2022/09/04 21:54:08;;;;;;;7.07;3.60;;;13.30;99.90;;;;;;8334629;28;20630;-79
2022/09/04 21:58:27;;;;;;;8.13;3.22;;;13.20;99.90;;;;;;8330940;28;20029;-80
2022/09/04 22:02:52;;;;;;;6.60;3.25;;;13.30;99.90;;;;;;8331508;28;20037;-80
2022/09/04 22:07:20;;;;;;;4.43;3.33;;;13.10;99.90;;;;;;8325283;28;20060;-78
2022/09/04 22:11:41;;;;;;;4.10;3.25;;;13.00;99.90;;;;;;8329179;28;20036;-79
2022/09/04 22:16:07;;;;;;;5.38;3.45;;;12.80;99.90;;;;;;8325573;28;20448;-80
2022/09/04 22:20:22;;;;;;;5.28;3.55;;;12.80;99.90;;;;;;8328139;28;20018;-80
2022/09/04 22:24:25;;;;;;;5.93;3.25;;;12.70;99.90;;;;;;8327517;28;20025;-78
2022/09/04 22:28:41;;;;;;;4.82;3.88;;;12.70;99.90;;;;;;8316145;28;20028;-79
2022/09/04 22:32:44;;;;;;;4.07;3.65;;;12.70;99.90;;;;;;8331211;28;20479;-79
2022/09/04 22:37:10;;;;;;;4.75;3.90;;;12.80;99.90;;;;;;8320642;28;20033;-79
2022/09/04 22:41:42;;;;;;;5.63;3.20;;;12.80;99.90;;;;;;8328551;28;20021;-77
2022/09/04 22:45:42;;;;;;;4.68;3.42;;;12.70;99.90;;;;;;8325378;28;20040;-78
2022/09/04 22:50:15;;;;;;;9.60;3.63;;;12.60;99.90;;;;;;8313679;28;20604;-79
2022/09/04 22:54:22;;;;;;;4.72;3.88;;;12.60;99.90;;;;;;8336781;28;20017;-79
2022/09/04 22:58:50;;;;;;;5.38;3.72;;;12.50;99.90;;;;;;8331687;28;20658;-79
2022/09/04 23:02:59;;;;;;;4.72;3.78;;;12.40;99.90;;;;;;8325769;28;20609;-79
2022/09/04 23:07:18;;;;;;;4.55;3.72;;;12.30;99.90;;;;;;8332313;28;20136;-78
2022/09/04 23:11:38;;;;;;;5.95;3.95;;;12.10;99.90;;;;;;8329570;28;20018;-79
2022/09/04 23:15:46;;;;;;;5.63;3.63;;;12.10;99.90;;;;;;8313805;28;20045;-78
2022/09/04 23:20:23;;;;;;;7.55;4.03;;;12.30;99.90;;;;;;8316501;28;20029;-78
2022/09/04 23:24:43;;;;;;;6.10;4.65;;;12.20;99.90;;;;;;8324439;28;20032;-78
2022/09/04 23:28:49;;;;;;;5.13;4.05;;;12.10;99.90;;;;;;8322595;28;20032;-79
2022/09/04 23:33:20;;;;;;;5.95;3.80;;;12.10;99.90;;;;;;8319081;28;20040;-79
2022/09/04 23:37:30;;;;;;;5.95;3.95;;;12.00;99.90;;;;;;8335113;28;20080;-79
2022/09/04 23:41:54;;;;;;;5.15;3.83;;;12.00;99.90;;;;;;8332239;28;20037;-78
2022/09/04 23:46:01;;;;;;;4.18;3.78;;;11.90;99.90;;;;;;8327477;28;20086;-78
2022/09/04 23:50:22;;;;;;;8.98;4.32;;;11.90;99.90;;;;;;8330130;28;20063;-79
2022/09/04 23:54:51;;;;;;;4.70;3.88;;;11.90;99.90;;;;;;8335069;28;20031;-78
